Tributaries of Morava river

Břeclav-Ladná (Thaya)

Date and time (UTC) H (cm) Q (m³/s)
28. 9. 2022 15:20 23 13.9
28. 9. 2022 15:00 24 14
28. 9. 2022 14:00 23 14
28. 9. 2022 13:00 23 14
28. 9. 2022 12:00 23 14
28. 9. 2022 11:00 23 14
28. 9. 2022 10:00 23 14
28. 9. 2022 09:00 23 14
28. 9. 2022 08:00 24 14
28. 9. 2022 07:00 25 15
28. 9. 2022 06:00 26 15
28. 9. 2022 05:00 27 16
28. 9. 2022 04:00 26 15
28. 9. 2022 03:00 23 14

H - water level, Q - discharge

Dluhonice (Bečva)

Date and time (UTC) H (cm) Q (m³/s)
28. 9. 2022 15:30 154 23.5
28. 9. 2022 15:00 154 24
28. 9. 2022 14:00 151 22
28. 9. 2022 13:00 152 22
28. 9. 2022 12:00 155 24
28. 9. 2022 11:00 157 26
28. 9. 2022 10:00 165 32
28. 9. 2022 09:00 156 25
28. 9. 2022 08:00 149 20
28. 9. 2022 07:00 144 17
28. 9. 2022 06:00 141 15
28. 9. 2022 05:00 138 14
28. 9. 2022 04:00 137 13
28. 9. 2022 03:00 136 13

H - water level, Q - discharge
Source data
Labe Basin Vltava Basin Povodí Moravy ČHMÚ